createdAt,value
2022-12-25T00:00:45.003Z,97688.25
2022-12-25T00:04:47.656Z,97692.75
2022-12-25T00:08:51.712Z,97689.44
2022-12-25T00:12:54.309Z,97692.31
2022-12-25T00:16:56.927Z,97677.19
2022-12-25T00:21:00.787Z,97682.94
2022-12-25T00:25:05.378Z,97681.84
2022-12-25T00:29:08.044Z,97676.16
2022-12-25T00:33:10.703Z,97685.44
2022-12-25T00:37:13.320Z,97684.97
2022-12-25T00:41:39.230Z,97670.22
2022-12-25T00:45:41.923Z,97669.75
2022-12-25T00:49:44.943Z,97665.25
2022-12-25T00:53:47.543Z,97677.38
2022-12-25T00:57:51.577Z,97667.81
2022-12-25T01:01:54.249Z,97667.06
2022-12-25T01:05:59.545Z,97669.53
2022-12-25T01:10:20.735Z,97680.09
2022-12-25T01:14:24.739Z,97688.31
2022-12-25T01:18:27.359Z,97696.38
2022-12-25T01:22:30.001Z,97699.53
2022-12-25T01:26:32.623Z,97705.88
2022-12-25T01:30:36.634Z,97716.91
2022-12-25T01:34:39.458Z,97712.00
2022-12-25T01:38:42.176Z,97715.00
2022-12-25T01:42:44.796Z,97711.75
2022-12-25T01:46:48.747Z,97708.91
2022-12-25T01:50:55.404Z,97717.78
2022-12-25T01:54:59.480Z,97715.28
2022-12-25T01:59:03.898Z,97697.50
2022-12-25T02:03:07.952Z,97689.63
2022-12-25T02:07:14.353Z,97695.63
2022-12-25T02:11:30.903Z,97688.78
2022-12-25T02:15:41.926Z,97688.78
2022-12-25T02:20:14.759Z,97691.16
2022-12-25T02:24:43.006Z,97693.59
2022-12-25T02:28:54.094Z,97691.41
2022-12-25T02:33:19.796Z,97699.38
2022-12-25T02:37:29.024Z,97696.75
2022-12-25T02:41:36.806Z,97695.44
2022-12-25T02:46:03.130Z,97707.56
2022-12-25T02:50:25.428Z,97700.56
2022-12-25T02:54:50.875Z,97705.28
2022-12-25T02:59:11.383Z,97702.84
2022-12-25T03:03:34.743Z,97707.22
2022-12-25T03:07:40.858Z,97704.59
2022-12-25T03:11:45.551Z,97704.50
2022-12-25T03:16:07.131Z,97702.88
2022-12-25T03:20:29.677Z,97707.31
2022-12-25T03:24:50.153Z,97690.31
2022-12-25T03:28:52.762Z,97680.66
2022-12-25T03:33:23.356Z,97679.50
2022-12-25T03:37:51.065Z,97685.19
2022-12-25T03:42:17.386Z,97679.94
2022-12-25T03:46:39.570Z,97664.47
2022-12-25T03:51:03.566Z,97667.31
2022-12-25T03:55:29.290Z,97648.53
2022-12-25T03:59:49.316Z,97653.06
2022-12-25T04:04:09.406Z,97662.25
2022-12-25T04:08:29.688Z,97650.69
2022-12-25T04:12:51.164Z,97656.06
2022-12-25T04:17:11.243Z,97664.75
2022-12-25T04:21:31.267Z,97651.00
2022-12-25T04:25:51.350Z,97657.19
2022-12-25T04:30:12.718Z,97649.53
2022-12-25T04:34:32.915Z,97651.22
2022-12-25T04:38:36.631Z,97643.56
2022-12-25T04:42:39.235Z,97647.47
2022-12-25T04:46:43.212Z,97646.81
2022-12-25T04:50:45.984Z,97649.38
2022-12-25T04:54:48.587Z,97658.91
2022-12-25T04:58:51.251Z,97666.94
2022-12-25T05:02:55.334Z,97665.75
2022-12-25T05:06:57.980Z,97666.28
2022-12-25T05:11:00.671Z,97654.28
2022-12-25T05:15:03.307Z,97658.47
2022-12-25T05:19:07.315Z,97654.66
2022-12-25T05:23:11.529Z,97654.00
2022-12-25T05:27:15.055Z,97650.00
2022-12-25T05:31:18.852Z,97656.31
2022-12-25T05:35:22.824Z,97648.97
2022-12-25T05:39:25.678Z,97658.84
2022-12-25T05:43:29.082Z,97649.63
2022-12-25T05:47:31.692Z,97656.00
2022-12-25T05:51:35.744Z,97650.31
2022-12-25T05:55:39.827Z,97647.59
2022-12-25T05:59:42.458Z,97655.66
2022-12-25T06:03:45.177Z,97641.56
2022-12-25T06:07:49.452Z,97652.75
2022-12-25T06:11:52.113Z,97656.94
2022-12-25T06:15:54.750Z,97679.16
2022-12-25T06:19:57.459Z,97670.78
2022-12-25T06:24:02.007Z,97670.47
2022-12-25T06:28:05.071Z,97672.94
2022-12-25T06:32:07.757Z,97663.09
2022-12-25T06:36:15.207Z,97656.72
2022-12-25T06:40:19.923Z,97659.06
2022-12-25T06:44:22.703Z,97660.75
2022-12-25T06:48:25.292Z,97668.25
2022-12-25T06:52:27.850Z,97660.88
2022-12-25T06:56:32.921Z,97669.56
2022-12-25T07:00:35.536Z,97679.25
2022-12-25T07:04:41.686Z,97673.91
2022-12-25T07:08:44.450Z,97681.25
2022-12-25T07:12:48.515Z,97689.78
2022-12-25T07:16:51.215Z,97694.66
2022-12-25T07:20:55.808Z,97681.25
2022-12-25T07:24:58.470Z,97681.41
2022-12-25T07:29:02.417Z,97682.25
2022-12-25T07:33:05.267Z,97683.41
2022-12-25T07:37:07.872Z,97681.97
2022-12-25T07:41:11.128Z,97673.94
2022-12-25T07:45:15.113Z,97673.72
2022-12-25T07:49:17.790Z,97679.69
2022-12-25T07:53:20.397Z,97677.38
2022-12-25T07:57:22.982Z,97686.03
2022-12-25T08:01:28.545Z,97679.13
2022-12-25T08:05:33.689Z,97682.78
2022-12-25T08:09:36.683Z,97684.69
2022-12-25T08:13:39.322Z,97685.34
2022-12-25T08:17:43.309Z,97697.50
2022-12-25T08:21:46.014Z,97689.94
2022-12-25T08:25:48.648Z,97685.59
2022-12-25T08:29:51.289Z,97679.03
2022-12-25T08:33:57.389Z,97677.94
2022-12-25T08:38:00.053Z,97677.69
2022-12-25T08:42:02.765Z,97680.53
2022-12-25T08:46:07.233Z,97673.22
2022-12-25T08:50:11.755Z,97671.34
2022-12-25T08:54:14.691Z,97659.97
2022-12-25T08:58:17.702Z,97659.88
2022-12-25T09:02:20.467Z,97650.41
2022-12-25T09:06:24.624Z,97642.72
2022-12-25T09:10:27.402Z,97650.78
2022-12-25T09:14:31.281Z,97647.19
2022-12-25T09:18:33.936Z,97649.13
2022-12-25T09:22:37.910Z,97644.75
2022-12-25T09:26:40.829Z,97654.19
2022-12-25T09:30:43.577Z,97668.28
2022-12-25T09:34:46.196Z,97661.72
2022-12-25T09:38:50.192Z,97664.50
2022-12-25T09:42:54.932Z,97677.69
2022-12-25T09:47:02.660Z,97645.25
2022-12-25T09:51:11.113Z,97651.16
2022-12-25T09:55:20.488Z,97647.38
2022-12-25T09:59:27.209Z,97643.19
2022-12-25T10:03:43.560Z,97632.78
2022-12-25T10:07:53.409Z,97628.09
2022-12-25T10:12:15.301Z,97637.38
2022-12-25T10:16:29.183Z,97637.72
2022-12-25T10:20:44.100Z,97636.53
2022-12-25T10:24:50.551Z,97641.63
2022-12-25T10:29:01.035Z,97637.81
2022-12-25T10:33:03.675Z,97625.03
2022-12-25T10:37:06.394Z,97601.66
2022-12-25T10:41:20.065Z,97608.97
2022-12-25T10:45:24.023Z,97588.25
2022-12-25T10:49:30.475Z,97595.56
2022-12-25T10:53:40.088Z,97570.00
2022-12-25T10:57:46.858Z,97568.53
2022-12-25T11:01:55.042Z,97563.56
2022-12-25T11:05:58.577Z,97545.88
2022-12-25T11:10:05.776Z,97534.66
2022-12-25T11:14:18.282Z,97539.34
2022-12-25T11:18:23.907Z,97507.88
2022-12-25T11:22:28.808Z,97515.06
2022-12-25T11:26:37.274Z,97510.47
2022-12-25T11:30:41.719Z,97524.09
2022-12-25T11:34:48.070Z,97514.03
2022-12-25T11:38:51.946Z,97497.16
2022-12-25T11:43:04.136Z,97501.19
2022-12-25T11:47:18.394Z,97508.84
2022-12-25T11:51:24.031Z,97500.84
2022-12-25T11:55:37.141Z,97502.53
2022-12-25T11:59:47.077Z,97489.88
2022-12-25T12:03:50.325Z,97477.66
2022-12-25T12:07:58.602Z,97482.22
2022-12-25T12:12:09.670Z,97483.31
2022-12-25T12:16:12.876Z,97473.22
2022-12-25T12:20:29.284Z,97471.69
2022-12-25T12:24:37.089Z,97468.25
2022-12-25T12:28:46.053Z,97468.25
2022-12-25T12:32:53.832Z,97476.47
2022-12-25T12:37:04.822Z,97480.66
2022-12-25T12:41:10.579Z,97473.09
2022-12-25T12:45:19.240Z,97470.66
2022-12-25T12:49:24.776Z,97458.88
2022-12-25T12:53:32.338Z,97460.94
2022-12-25T12:57:40.191Z,97456.84
2022-12-25T13:01:52.710Z,97433.50
2022-12-25T13:05:58.895Z,97434.56
2022-12-25T13:10:10.249Z,97426.56
2022-12-25T13:14:20.708Z,97399.59
2022-12-25T13:18:23.637Z,97411.50
2022-12-25T13:22:31.533Z,97405.25
2022-12-25T13:26:34.249Z,97412.13
2022-12-25T13:30:38.221Z,97420.78
2022-12-25T13:34:43.179Z,97411.94
2022-12-25T13:38:47.652Z,97420.56
2022-12-25T13:42:51.115Z,97421.19
2022-12-25T13:46:55.083Z,97417.31
2022-12-25T13:50:59.025Z,97411.69
2022-12-25T13:55:05.064Z,97386.56
2022-12-25T13:59:07.694Z,97389.47
2022-12-25T14:03:20.355Z,97381.72
2022-12-25T14:07:25.004Z,97384.03
2022-12-25T14:11:30.493Z,97392.94
2022-12-25T14:15:34.926Z,97398.22
2022-12-25T14:19:39.275Z,97416.38
2022-12-25T14:23:45.382Z,97410.81
2022-12-25T14:27:52.472Z,97397.59
2022-12-25T14:31:58.247Z,97393.94
2022-12-25T14:36:02.272Z,97400.34
2022-12-25T14:40:07.555Z,97398.16
2022-12-25T14:44:35.006Z,97409.97
2022-12-25T14:48:37.659Z,97412.31
2022-12-25T14:52:45.243Z,97404.03
2022-12-25T14:56:49.276Z,97393.44
2022-12-25T15:00:56.270Z,97394.16
2022-12-25T15:04:58.972Z,97385.31
2022-12-25T15:09:06.412Z,97401.56
2022-12-25T15:13:08.995Z,97388.69
2022-12-25T15:17:19.902Z,97415.44
2022-12-25T15:21:27.176Z,97412.09
2022-12-25T15:25:31.117Z,97418.88
2022-12-25T15:30:08.655Z,97412.44
2022-12-25T15:33:58.027Z,97405.13
2022-12-25T15:38:00.696Z,97393.72
2022-12-25T15:42:14.628Z,97395.97
2022-12-25T15:46:18.034Z,97387.91
2022-12-25T15:50:21.522Z,97381.69
2022-12-25T15:54:24.115Z,97368.16
2022-12-25T15:58:28.054Z,97375.38
2022-12-25T16:02:30.808Z,97368.53
2022-12-25T16:06:33.509Z,97368.16
2022-12-25T16:10:38.996Z,97365.22
2022-12-25T16:14:44.369Z,97368.53
2022-12-25T16:18:47.908Z,97368.72
2022-12-25T16:22:50.691Z,97388.44
2022-12-25T16:26:53.376Z,97391.53
2022-12-25T16:30:57.484Z,97392.97
2022-12-25T16:35:00.109Z,97392.97
2022-12-25T16:39:03.976Z,97379.25
2022-12-25T16:43:06.862Z,97379.59
2022-12-25T16:47:10.798Z,97372.50
2022-12-25T16:51:15.264Z,97386.34
2022-12-25T16:55:18.033Z,97380.31
2022-12-25T16:59:20.709Z,97374.50
2022-12-25T17:03:24.688Z,97364.97
2022-12-25T17:07:27.343Z,97370.97
2022-12-25T17:11:30.680Z,97371.22
2022-12-25T17:15:33.236Z,97376.19
2022-12-25T17:19:37.180Z,97365.88
2022-12-25T17:23:40.131Z,97380.38
2022-12-25T17:27:42.720Z,97363.16
2022-12-25T17:31:45.338Z,97363.53
2022-12-25T17:35:49.332Z,97351.66
2022-12-25T17:39:51.917Z,97348.34
2022-12-25T17:43:54.604Z,97356.63
2022-12-25T17:47:57.606Z,97359.69
2022-12-25T17:52:01.888Z,97356.94
2022-12-25T17:56:05.212Z,97362.41
2022-12-25T18:00:09.057Z,97351.75
2022-12-25T18:04:11.673Z,97369.47
2022-12-25T18:08:16.360Z,97357.63
2022-12-25T18:12:18.969Z,97345.16
2022-12-25T18:16:24.382Z,97364.50
2022-12-25T18:20:27.017Z,97354.00
2022-12-25T18:24:31.873Z,97367.75
2022-12-25T18:28:35.691Z,97365.81
2022-12-25T18:32:38.833Z,97360.59
2022-12-25T18:36:41.622Z,97368.16
2022-12-25T18:40:47.679Z,97358.19
2022-12-25T18:44:50.377Z,97359.38
2022-12-25T18:48:53.445Z,97362.91
2022-12-25T18:52:56.190Z,97352.03
2022-12-25T18:57:06.900Z,97349.34
2022-12-25T19:01:15.073Z,97340.59
2022-12-25T19:05:18.844Z,97361.47
2022-12-25T19:09:21.486Z,97362.41
2022-12-25T19:13:25.556Z,97366.31
2022-12-25T19:17:31.867Z,97358.91
2022-12-25T19:21:34.964Z,97344.16
2022-12-25T19:25:40.462Z,97353.50
2022-12-25T19:29:44.445Z,97360.28
2022-12-25T19:33:47.075Z,97366.47
2022-12-25T19:37:49.692Z,97373.41
2022-12-25T19:41:52.334Z,97379.16
2022-12-25T19:45:56.659Z,97370.81
2022-12-25T19:50:03.104Z,97356.03
2022-12-25T19:54:07.228Z,97352.69
2022-12-25T19:58:10.023Z,97355.84
2022-12-25T20:02:14.445Z,97370.28
2022-12-25T20:06:23.259Z,97355.03
2022-12-25T20:10:26.011Z,97358.72
2022-12-25T20:14:28.669Z,97362.03
2022-12-25T20:18:32.867Z,97338.56
2022-12-25T20:22:35.577Z,97347.94
2022-12-25T20:26:39.827Z,97361.19
2022-12-25T20:30:42.412Z,97364.88
2022-12-25T20:34:46.463Z,97357.84
2022-12-25T20:38:49.123Z,97354.31
2022-12-25T20:42:51.749Z,97363.00
2022-12-25T20:46:54.912Z,97359.88
2022-12-25T20:51:08.872Z,97352.63
2022-12-25T20:55:11.502Z,97362.78
2022-12-25T20:59:14.592Z,97373.31
2022-12-25T21:03:17.348Z,97373.78
2022-12-25T21:07:21.407Z,97361.56
2022-12-25T21:11:24.359Z,97365.38
2022-12-25T21:15:27.024Z,97366.53
2022-12-25T21:19:29.784Z,97363.03
2022-12-25T21:23:34.202Z,97367.94
2022-12-25T21:27:36.859Z,97367.28
2022-12-25T21:31:53.439Z,97374.66
2022-12-25T21:35:56.177Z,97374.09
2022-12-25T21:40:00.317Z,97394.41
2022-12-25T21:44:03.164Z,97408.34
2022-12-25T21:48:06.228Z,97411.91
2022-12-25T21:52:08.807Z,97416.47
2022-12-25T21:56:12.767Z,97420.91
2022-12-25T22:00:15.756Z,97422.44
2022-12-25T22:04:19.913Z,97440.53
2022-12-25T22:08:22.489Z,97442.78
2022-12-25T22:12:43.972Z,97434.44
2022-12-25T22:17:04.047Z,97438.72
2022-12-25T22:21:06.721Z,97432.31
2022-12-25T22:25:10.764Z,97421.31
2022-12-25T22:29:14.750Z,97433.50
2022-12-25T22:33:17.408Z,97425.91
2022-12-25T22:37:20.271Z,97422.22
2022-12-25T22:41:23.726Z,97439.25
2022-12-25T22:45:29.871Z,97445.00
2022-12-25T22:49:32.655Z,97445.53
2022-12-25T22:53:36.656Z,97434.50
2022-12-25T22:57:40.682Z,97444.00
2022-12-25T23:01:45.060Z,97442.75
2022-12-25T23:05:54.633Z,97449.50
2022-12-25T23:09:57.215Z,97436.75
2022-12-25T23:14:17.170Z,97436.94
2022-12-25T23:18:38.807Z,97444.78
2022-12-25T23:22:58.814Z,97445.44
2022-12-25T23:27:01.425Z,97452.78
2022-12-25T23:31:04.169Z,97462.28
2022-12-25T23:35:09.083Z,97453.56
2022-12-25T23:39:11.722Z,97459.06
2022-12-25T23:43:14.394Z,97458.84
2022-12-25T23:47:17.375Z,97451.31
2022-12-25T23:51:21.270Z,97455.94
2022-12-25T23:55:23.900Z,97459.91
2022-12-25T23:59:27.972Z,97460.84
